Flight Track Log - Related Links

Times and Time Zones

All times are in EDT time to prevent confusion due to time zone crossing. See the ASQ3807 flight status page for this flight to view local times or setup timezone preferences in your user account.


Time Position Orientation Groundspeed Altitude Reporting Facility
EDT Latitude Longitude Course Direction KTS MPH feet Rate Location/Type
Sun 09:58:26 PM 40.6333 -74.1833 59° Northeast 186 214 2,000  Level New York TRACON
Sun 09:59:26 PM 40.6500 -74.2500 288° West 248 285 3,700 1,714 Climbing New York TRACON
Sun 10:00:00 PM 40.8249 -73.8835 57° Northeast  Level FlightAware Approximate
Sun 10:00:32 PM 40.6833 -74.1833 57° Northeast 245 282 5,600  Level New York TRACON
Sun 10:01:00 PM 40.8707 -73.7919 56° Northeast  Level FlightAware Approximate
Sun 10:01:26 PM 40.7333 -74.1167 45° Northeast 271 312 8,000  Level New York TRACON
Sun 10:02:00 PM 40.9182 -73.6966 59° Northeast  Level FlightAware Approximate
Sun 10:02:26 PM 40.7667 -74.0333 62° Northeast 270 311 9,600  Level New York TRACON
Sun 10:03:00 PM 40.9627 -73.5988 59° Northeast  Level FlightAware Approximate
Sun 10:04:02 PM 40.8489 -73.8806 55° Northeast 304 350 10,800  Level Boston Center
Sun 10:05:02 PM 40.8981 -73.7856 56° Northeast 332 382 12,000 1,050 Climbing Boston Center
Sun 10:06:02 PM 40.9536 -73.6714 57° Northeast 350 403 12,900 500 Climbing Boston Center
Sun 10:07:02 PM 41.0089 -73.5542 58° Northeast 365 420 13,000 50 Climbing Boston Center
Sun 10:08:02 PM 41.0706 -73.4258 57° Northeast 365 420 13,000 -50 Level Boston Center
Sun 10:09:02 PM 41.1258 -73.3192 55° Northeast 378 435 12,900 -50 Descending Boston Center
Sun 10:10:02 PM 41.1808 -73.1986 59° Northeast 378 435 12,900  Level Boston Center
Sun 10:11:02 PM 41.2378 -73.0833 57° Northeast 378 435 12,900 50 Level Boston Center
Sun 10:12:02 PM 41.2822 -72.9483 66° East 357 411 13,000 50 Climbing Boston Center
Sun 10:13:02 PM 41.2889 -72.8131 86° East 358 412 13,000  Level Boston Center
Sun 10:14:02 PM 41.2956 -72.6750 86° East 371 427 13,000  Level Boston Center
Sun 10:15:02 PM 41.3019 -72.5367 86° East 371 427 13,000  Level Boston Center
Sun 10:15:53 PM 41.3125 -72.4153 83° East 378 435 13,000 -300 Level Boston Center
Sun 10:16:42 PM 41.3167 -72.3047 87° East 378 435 12,500 -696 Descending Boston Center
Sun 10:17:02 PM 41.3208 -72.2578 83° East 371 427 12,200 -900 Descending Boston Center
Sun 10:17:42 PM 41.3225 -72.1664 89° East 373 429 11,600 -750 Descending Boston Center
Sun 10:18:14 PM 41.3267 -72.1389 79° East 366 421 11,300 -1,082 Descending Boston Center
Sun 10:18:43 PM 41.3306 -72.0503 87° East 312 359 10,500 -1,200 Descending Boston Center
Sun 10:19:44 PM 41.3803 -71.9586 54° Northeast 290 334 9,500 -992 Descending Boston Center
Sun 10:20:44 PM 41.4300 -71.8808 50° Northeast 278 320 8,500 -1,041 Descending Boston Center
Sun 10:21:45 PM 41.4878 -71.8083 43° Northeast 272 313 7,400 -1,033 Descending Boston Center
Sun 10:22:46 PM 41.5481 -71.7550 34° Northeast 266 306 6,400 -992 Descending Boston Center
Sun 10:23:46 PM 41.6081 -71.7017 34° Northeast 260 299 5,400 -694 Descending Boston Center
Sun 10:24:47 PM 41.6683 -71.6508 32° Northeast 258 297 5,000 -446 Descending Boston Center
Sun 10:25:47 PM 41.7283 -71.6000 32° Northeast 252 290 4,500 -744 Descending Boston Center
Sun 10:26:48 PM 41.7861 -71.5492 33° Northeast 246 283 3,500 -738 Descending Boston Center
Sun 10:27:49 PM 41.8381 -71.5039 33° Northeast 228 262 3,000 -248 Descending Boston Center
Sun 10:28:49 PM 41.8856 -71.4558 37° Northeast 219 252 3,000 -283 Level Boston Center
Sun 10:29:56 PM 41.9078 -71.3856 67° East 211 243 2,400 -443 Descending Boston Center
Sun 10:30:51 PM 41.8844 -71.3331 121° Southeast 201 231 2,100 -157 Descending Boston Center
Sun 10:31:51 PM 41.8364 -71.3339 181° South 194 223 2,100 -298 Level Boston Center
Sun 10:32:52 PM 41.7889 -71.3736 212° Southwest 187 215 1,500 -694 Descending Boston Center
Sun 10:33:52 PM 41.7558 -71.4050 215° Southwest 141 162 700 -800 Descending Boston Center

Login

Don't have an account? Register now (free) for customized features, flight alerts, and more!